createdAt,value
2018-07-31T00:02:10.242Z,76.93
2018-07-31T00:04:39.108Z,77.35
2018-07-31T00:07:07.927Z,76.81
2018-07-31T00:09:36.747Z,77.37
2018-07-31T00:12:05.597Z,77.42
2018-07-31T00:14:34.398Z,76.45
2018-07-31T00:17:03.258Z,76.82
2018-07-31T00:19:32.073Z,77.48
2018-07-31T00:22:01.296Z,76.26
2018-07-31T00:24:30.196Z,77.09
2018-07-31T00:26:59.026Z,77.56
2018-07-31T00:29:27.799Z,77.59
2018-07-31T00:31:56.585Z,77.21
2018-07-31T00:34:25.417Z,76.60
2018-07-31T00:36:54.403Z,76.53
2018-07-31T00:39:23.190Z,76.56
2018-07-31T00:41:51.956Z,77.35
2018-07-31T00:44:20.766Z,77.29
2018-07-31T00:46:49.581Z,76.10
2018-07-31T00:49:18.436Z,75.71
2018-07-31T00:51:47.383Z,75.98
2018-07-31T00:54:16.270Z,75.77
2018-07-31T00:56:45.151Z,75.64
2018-07-31T00:59:13.969Z,75.77
2018-07-31T01:01:42.812Z,76.03
2018-07-31T01:04:11.559Z,76.04
2018-07-31T01:06:42.318Z,75.27
2018-07-31T01:09:12.509Z,75.17
2018-07-31T01:11:41.422Z,74.86
2018-07-31T01:14:10.842Z,74.80
2018-07-31T01:16:41.271Z,75.53
2018-07-31T01:19:11.093Z,75.25
2018-07-31T01:21:40.383Z,74.49
2018-07-31T01:24:09.820Z,74.62
2018-07-31T01:26:38.576Z,75.04
2018-07-31T01:29:07.386Z,74.76
2018-07-31T01:31:36.562Z,74.83
2018-07-31T01:34:05.475Z,74.52
2018-07-31T01:36:34.279Z,75.10
2018-07-31T01:39:03.095Z,74.45
2018-07-31T01:41:31.944Z,73.66
2018-07-31T01:44:00.705Z,74.20
2018-07-31T01:46:29.611Z,73.57
2018-07-31T01:48:58.377Z,73.73
2018-07-31T01:51:27.198Z,73.55
2018-07-31T01:53:55.965Z,74.43
2018-07-31T01:56:24.793Z,73.99
2018-07-31T01:58:53.527Z,73.59
2018-07-31T02:01:22.317Z,73.30
2018-07-31T02:03:51.228Z,73.42
2018-07-31T02:06:24.340Z,73.13
2018-07-31T02:08:53.777Z,73.40
2018-07-31T02:11:22.593Z,74.45
2018-07-31T02:13:51.933Z,74.01
2018-07-31T02:16:20.724Z,75.02
2018-07-31T02:18:49.637Z,74.79
2018-07-31T02:21:18.466Z,74.46
2018-07-31T02:23:47.249Z,73.70
2018-07-31T02:26:16.070Z,74.34
2018-07-31T02:28:44.897Z,74.24
2018-07-31T02:31:14.212Z,73.76
2018-07-31T02:33:43.020Z,74.01
2018-07-31T02:36:12.638Z,75.08
2018-07-31T02:38:41.475Z,74.41
2018-07-31T02:41:10.354Z,75.44
2018-07-31T02:43:39.146Z,75.51
2018-07-31T02:46:08.031Z,75.11
2018-07-31T02:48:36.938Z,74.61
2018-07-31T02:51:05.761Z,74.91
2018-07-31T02:53:34.593Z,75.85
2018-07-31T02:56:03.345Z,75.27
2018-07-31T02:58:33.726Z,76.34
2018-07-31T03:01:02.628Z,76.73
2018-07-31T03:03:31.526Z,75.82
2018-07-31T03:06:00.423Z,76.78
2018-07-31T03:08:29.200Z,77.15
2018-07-31T03:10:57.963Z,76.90
2018-07-31T03:13:26.866Z,77.43
2018-07-31T03:15:55.620Z,76.56
2018-07-31T03:18:24.484Z,76.81
2018-07-31T03:20:53.445Z,77.94
2018-07-31T03:23:22.247Z,77.96
2018-07-31T03:25:51.027Z,77.73
2018-07-31T03:28:19.844Z,77.76
2018-07-31T03:30:48.823Z,78.75
2018-07-31T03:33:17.610Z,78.22
2018-07-31T03:35:46.422Z,78.97
2018-07-31T03:38:20.612Z,78.97
2018-07-31T03:41:00.660Z,78.13
2018-07-31T03:43:33.313Z,77.92
2018-07-31T03:46:02.113Z,77.85
2018-07-31T03:48:30.912Z,78.03
2018-07-31T03:50:59.786Z,78.23
2018-07-31T03:53:28.581Z,77.97
2018-07-31T03:55:57.406Z,77.67
2018-07-31T03:58:26.305Z,77.86
2018-07-31T04:00:55.181Z,77.05
2018-07-31T04:03:23.999Z,76.96
2018-07-31T04:05:52.793Z,76.86
2018-07-31T04:08:21.745Z,77.62
2018-07-31T04:10:50.721Z,76.58
2018-07-31T04:13:19.481Z,77.07
2018-07-31T04:15:48.643Z,76.93
2018-07-31T04:18:17.413Z,76.78
2018-07-31T04:20:46.291Z,76.57
2018-07-31T04:23:15.134Z,76.45
2018-07-31T04:25:43.951Z,76.17
2018-07-31T04:28:12.743Z,75.40
2018-07-31T04:30:41.509Z,75.38
2018-07-31T04:33:10.279Z,75.43
2018-07-31T04:35:39.189Z,74.45
2018-07-31T04:38:08.038Z,75.28
2018-07-31T04:40:36.789Z,74.45
2018-07-31T04:43:05.937Z,75.10
2018-07-31T04:45:35.062Z,75.06
2018-07-31T04:48:03.857Z,74.91
2018-07-31T04:50:32.665Z,73.97
2018-07-31T04:53:01.483Z,74.06
2018-07-31T04:55:30.316Z,73.48
2018-07-31T04:57:59.209Z,73.91
2018-07-31T05:00:28.050Z,74.48
2018-07-31T05:02:56.903Z,74.30
2018-07-31T05:05:25.665Z,73.84
2018-07-31T05:07:54.510Z,74.15
2018-07-31T05:10:23.318Z,73.95
2018-07-31T05:12:52.148Z,74.07
2018-07-31T05:15:20.949Z,73.83
2018-07-31T05:17:49.843Z,73.62
2018-07-31T05:20:19.205Z,73.61
2018-07-31T05:22:48.090Z,73.71
2018-07-31T05:25:17.069Z,73.46
2018-07-31T05:27:46.239Z,73.74
2018-07-31T05:30:15.170Z,74.19
2018-07-31T05:32:44.040Z,76.08
2018-07-31T05:35:13.010Z,75.70
2018-07-31T05:37:41.819Z,75.00
2018-07-31T05:40:11.022Z,76.31
2018-07-31T05:42:39.893Z,78.10
2018-07-31T05:45:08.857Z,79.42
2018-07-31T05:47:37.974Z,79.76
2018-07-31T05:50:07.876Z,78.72
2018-07-31T05:52:37.180Z,80.72
2018-07-31T05:55:06.439Z,79.28
2018-07-31T05:57:35.915Z,78.53
2018-07-31T06:00:06.954Z,78.71
2018-07-31T06:02:35.771Z,79.15
2018-07-31T06:05:05.010Z,77.69
2018-07-31T06:07:33.814Z,77.23
2018-07-31T06:10:02.660Z,77.52
2018-07-31T06:12:31.598Z,77.03
2018-07-31T06:15:00.361Z,76.86
2018-07-31T06:17:29.194Z,76.24
2018-07-31T06:19:58.233Z,74.62
2018-07-31T06:22:27.219Z,74.37
2018-07-31T06:24:56.417Z,75.36
2018-07-31T06:27:25.323Z,74.53
2018-07-31T06:29:54.193Z,73.74
2018-07-31T06:32:24.089Z,73.20
2018-07-31T06:34:52.840Z,72.03
2018-07-31T06:37:21.650Z,69.68
2018-07-31T06:39:50.491Z,71.42
2018-07-31T06:42:19.321Z,70.27
2018-07-31T06:44:48.093Z,69.11
2018-07-31T06:47:16.915Z,68.07
2018-07-31T06:49:45.882Z,68.99
2018-07-31T06:52:14.694Z,68.93
2018-07-31T06:54:43.682Z,67.82
2018-07-31T06:57:12.493Z,67.69
2018-07-31T06:59:41.361Z,67.63
2018-07-31T07:02:10.423Z,66.92
2018-07-31T07:04:39.464Z,65.42
2018-07-31T07:07:08.421Z,65.16
2018-07-31T07:09:37.351Z,65.93
2018-07-31T07:12:06.222Z,65.89
2018-07-31T07:14:35.070Z,64.39
2018-07-31T07:17:03.821Z,62.49
2018-07-31T07:19:32.581Z,63.46
2018-07-31T07:22:01.413Z,64.30
2018-07-31T07:24:30.230Z,65.51
2018-07-31T07:26:59.057Z,64.63
2018-07-31T07:29:27.924Z,63.72
2018-07-31T07:31:56.739Z,63.40
2018-07-31T07:34:25.666Z,62.02
2018-07-31T07:36:54.509Z,63.33
2018-07-31T07:39:23.771Z,61.63
2018-07-31T07:41:55.686Z,63.32
2018-07-31T07:44:24.549Z,63.67
2018-07-31T07:46:53.358Z,62.37
2018-07-31T07:49:22.193Z,60.93
2018-07-31T07:51:51.035Z,59.13
2018-07-31T07:54:19.848Z,57.44
2018-07-31T07:56:49.121Z,57.05
2018-07-31T07:59:17.944Z,57.25
2018-07-31T08:01:46.843Z,57.96
2018-07-31T08:04:15.694Z,57.70
2018-07-31T08:06:44.534Z,57.13
2018-07-31T08:09:13.338Z,56.95
2018-07-31T08:11:42.187Z,57.06
2018-07-31T08:14:10.909Z,55.62
2018-07-31T08:16:39.717Z,55.14
2018-07-31T08:19:08.566Z,54.93
2018-07-31T08:21:37.586Z,55.66
2018-07-31T08:24:06.421Z,55.10
2018-07-31T08:26:35.462Z,54.74
2018-07-31T08:29:04.395Z,55.06
2018-07-31T08:34:10.171Z,55.73
2018-07-31T08:36:39.008Z,55.15
2018-07-31T08:39:09.469Z,56.79
2018-07-31T08:41:38.370Z,55.89
2018-07-31T08:44:07.418Z,55.56
2018-07-31T08:46:36.412Z,56.14
2018-07-31T08:49:05.252Z,55.56
2018-07-31T08:51:34.019Z,56.05
2018-07-31T08:54:02.803Z,56.37
2018-07-31T08:56:31.718Z,54.63
2018-07-31T08:59:00.510Z,53.62
2018-07-31T09:01:29.259Z,54.18
2018-07-31T09:03:58.087Z,53.30
2018-07-31T09:06:27.023Z,52.96
2018-07-31T09:08:55.908Z,52.86
2018-07-31T09:11:24.898Z,53.66
2018-07-31T09:13:53.678Z,53.44
2018-07-31T09:16:22.573Z,52.81
2018-07-31T09:18:51.394Z,51.96
2018-07-31T09:21:20.208Z,51.15
2018-07-31T09:23:48.985Z,51.62
2018-07-31T09:26:17.739Z,52.96
2018-07-31T09:28:46.603Z,52.16
2018-07-31T09:31:15.514Z,52.62
2018-07-31T09:33:44.501Z,54.00
2018-07-31T09:36:13.283Z,53.63
2018-07-31T09:38:42.081Z,54.50
2018-07-31T09:41:10.883Z,55.38
2018-07-31T09:43:39.708Z,55.61
2018-07-31T09:46:08.529Z,55.44
2018-07-31T09:48:37.767Z,55.84
2018-07-31T09:51:06.902Z,54.51
2018-07-31T09:53:35.689Z,54.12
2018-07-31T09:56:04.509Z,52.91
2018-07-31T09:58:33.274Z,54.10
2018-07-31T10:01:07.442Z,54.36
2018-07-31T10:03:36.243Z,54.27
2018-07-31T10:06:05.408Z,53.57
2018-07-31T10:08:34.205Z,54.82
2018-07-31T10:11:03.059Z,53.25
2018-07-31T10:13:32.262Z,54.68
2018-07-31T10:16:01.028Z,54.67
2018-07-31T10:18:29.835Z,54.38
2018-07-31T10:20:58.590Z,54.23
2018-07-31T10:23:27.363Z,55.53
2018-07-31T10:25:56.545Z,53.81
2018-07-31T10:28:25.298Z,54.08
2018-07-31T10:30:54.263Z,52.63
2018-07-31T10:33:23.571Z,52.20
2018-07-31T10:35:52.366Z,53.37
2018-07-31T10:38:21.176Z,52.07
2018-07-31T10:40:49.968Z,52.88
2018-07-31T10:43:18.758Z,52.14
2018-07-31T10:45:47.609Z,52.92
2018-07-31T10:48:16.690Z,52.29
2018-07-31T10:50:45.500Z,53.15
2018-07-31T10:53:14.437Z,51.88
2018-07-31T10:55:43.545Z,51.39
2018-07-31T10:58:12.408Z,50.42
2018-07-31T11:00:41.333Z,51.00
2018-07-31T11:03:10.250Z,52.14
2018-07-31T11:05:39.659Z,52.33
2018-07-31T11:08:08.469Z,52.97
2018-07-31T11:10:37.376Z,52.11
2018-07-31T11:13:06.261Z,51.16
2018-07-31T11:15:35.661Z,52.42
2018-07-31T11:18:04.469Z,51.03
2018-07-31T11:20:33.209Z,50.96
2018-07-31T11:23:02.163Z,51.59
2018-07-31T11:25:31.053Z,51.31
2018-07-31T11:28:00.286Z,50.80
2018-07-31T11:30:29.149Z,50.36
2018-07-31T11:32:57.958Z,50.84
2018-07-31T11:35:27.058Z,51.33
2018-07-31T11:37:55.850Z,52.07
2018-07-31T11:40:24.595Z,51.45
2018-07-31T11:42:53.433Z,51.51
2018-07-31T11:45:22.253Z,50.88
2018-07-31T11:47:51.068Z,51.42
2018-07-31T11:50:19.906Z,51.86
2018-07-31T11:52:48.721Z,52.12
2018-07-31T11:55:17.880Z,51.80
2018-07-31T11:57:46.677Z,50.53
2018-07-31T12:00:15.969Z,51.31
2018-07-31T12:02:45.683Z,50.27
2018-07-31T12:05:15.202Z,51.52
2018-07-31T12:07:44.077Z,51.09
2018-07-31T12:10:12.890Z,51.92
2018-07-31T12:12:43.698Z,52.24
2018-07-31T12:15:12.507Z,51.50
2018-07-31T12:17:41.317Z,50.88
2018-07-31T12:20:10.118Z,48.95
2018-07-31T12:22:38.897Z,49.23
2018-07-31T12:25:07.697Z,48.47
2018-07-31T12:27:36.514Z,49.19
2018-07-31T12:30:09.478Z,50.58
2018-07-31T12:32:38.509Z,50.45
2018-07-31T12:35:07.506Z,50.12
2018-07-31T12:37:36.303Z,51.46
2018-07-31T12:40:06.069Z,50.84
2018-07-31T12:42:41.418Z,49.77
2018-07-31T12:45:10.201Z,51.19
2018-07-31T12:47:38.988Z,52.45
2018-07-31T12:50:07.895Z,54.37
2018-07-31T12:52:36.841Z,52.55
2018-07-31T12:55:05.674Z,54.39
2018-07-31T12:57:34.474Z,54.02
2018-07-31T13:00:04.903Z,54.42
2018-07-31T13:02:34.019Z,54.69
2018-07-31T13:05:02.778Z,56.34
2018-07-31T13:07:31.602Z,56.61
2018-07-31T13:10:00.374Z,56.06
2018-07-31T13:12:29.109Z,56.94
2018-07-31T13:14:58.213Z,58.65
2018-07-31T13:17:27.049Z,59.97
2018-07-31T13:19:55.778Z,60.88
2018-07-31T13:22:24.602Z,61.98
2018-07-31T13:24:53.781Z,64.24
2018-07-31T13:27:22.561Z,64.43
2018-07-31T13:29:51.321Z,65.11
2018-07-31T13:32:20.135Z,65.54
2018-07-31T13:34:48.942Z,65.17
2018-07-31T13:37:17.798Z,65.84
2018-07-31T13:39:46.816Z,65.13
2018-07-31T13:42:15.649Z,64.33
2018-07-31T13:44:44.474Z,64.05
2018-07-31T13:47:13.267Z,64.95
2018-07-31T13:49:42.087Z,65.04
2018-07-31T13:52:10.927Z,64.05
2018-07-31T13:54:39.749Z,63.96
2018-07-31T13:57:08.951Z,63.15
2018-07-31T13:59:38.427Z,62.61
2018-07-31T14:02:09.523Z,61.99
2018-07-31T14:04:38.820Z,61.58
2018-07-31T14:07:07.746Z,61.50
2018-07-31T14:09:36.700Z,59.39
2018-07-31T14:12:05.466Z,60.19
2018-07-31T14:14:34.266Z,59.12
2018-07-31T14:17:03.419Z,60.10
2018-07-31T14:19:32.257Z,60.02
2018-07-31T14:22:01.177Z,59.00
2018-07-31T14:24:30.478Z,60.12
2018-07-31T14:26:59.401Z,58.15
2018-07-31T14:29:28.226Z,58.49
2018-07-31T14:31:57.307Z,59.09
2018-07-31T14:34:26.253Z,58.35
2018-07-31T14:36:55.517Z,56.85
2018-07-31T14:39:24.336Z,57.57
2018-07-31T14:41:55.950Z,57.12
2018-07-31T14:44:31.477Z,58.52
2018-07-31T14:47:00.298Z,58.62
2018-07-31T14:49:35.722Z,60.36
2018-07-31T14:52:04.509Z,59.88
2018-07-31T14:54:33.783Z,59.58
2018-07-31T14:57:02.599Z,59.48
2018-07-31T14:59:31.422Z,59.22
2018-07-31T15:02:00.446Z,59.63
2018-07-31T15:04:29.377Z,59.97
2018-07-31T15:06:59.280Z,60.52
2018-07-31T15:09:28.137Z,60.74
2018-07-31T15:11:57.011Z,60.38
2018-07-31T15:14:25.832Z,61.62
2018-07-31T15:16:54.634Z,61.42
2018-07-31T15:19:23.533Z,61.13
2018-07-31T15:21:52.717Z,62.19
2018-07-31T15:24:21.511Z,62.45
2018-07-31T15:26:50.409Z,62.67
2018-07-31T15:29:19.163Z,62.19
2018-07-31T15:31:48.005Z,62.11
2018-07-31T15:34:16.837Z,61.30
2018-07-31T15:36:45.609Z,60.88
2018-07-31T15:39:14.629Z,61.28
2018-07-31T15:41:44.063Z,60.88
2018-07-31T15:44:12.888Z,59.50
2018-07-31T15:46:42.772Z,57.71
2018-07-31T15:49:11.946Z,58.44
2018-07-31T15:54:26.869Z,56.77
2018-07-31T15:56:56.998Z,55.08
2018-07-31T15:59:25.883Z,55.93
2018-07-31T16:01:54.686Z,57.05
2018-07-31T16:04:26.820Z,58.11
2018-07-31T16:06:56.409Z,57.11
2018-07-31T16:09:25.200Z,56.57
2018-07-31T16:11:54.121Z,56.13
2018-07-31T16:14:22.895Z,55.91
2018-07-31T16:16:51.698Z,57.58
2018-07-31T16:19:20.556Z,57.82
2018-07-31T16:21:49.362Z,58.86
2018-07-31T16:24:18.150Z,58.40
2018-07-31T16:26:46.949Z,57.38
2018-07-31T16:29:17.668Z,59.21
2018-07-31T16:31:46.535Z,59.84
2018-07-31T16:34:15.779Z,60.19
2018-07-31T16:36:44.657Z,59.85
2018-07-31T16:39:13.434Z,60.66
2018-07-31T16:41:42.679Z,60.07
2018-07-31T16:44:11.678Z,60.16
2018-07-31T16:46:41.485Z,61.82
2018-07-31T16:49:10.290Z,61.74
2018-07-31T16:51:40.268Z,63.32
2018-07-31T16:54:09.158Z,63.79
2018-07-31T16:56:37.977Z,63.43
2018-07-31T16:59:06.938Z,63.74
2018-07-31T17:01:35.761Z,62.42
2018-07-31T17:04:04.625Z,63.49
2018-07-31T17:06:33.397Z,63.21
2018-07-31T17:09:04.528Z,63.36
2018-07-31T17:11:33.615Z,64.23
2018-07-31T17:14:02.464Z,65.22
2018-07-31T17:16:31.307Z,65.36
2018-07-31T17:19:00.084Z,65.42
2018-07-31T17:21:28.885Z,65.64
2018-07-31T17:23:57.925Z,65.53
2018-07-31T17:26:26.866Z,65.42
2018-07-31T17:28:55.738Z,65.79
2018-07-31T17:31:24.550Z,66.21
2018-07-31T17:33:53.696Z,66.74
2018-07-31T17:36:22.556Z,66.13
2018-07-31T17:38:51.438Z,66.56
2018-07-31T17:41:20.658Z,67.58
2018-07-31T17:43:49.495Z,68.71
2018-07-31T17:46:18.400Z,68.37
2018-07-31T17:48:47.605Z,68.51
2018-07-31T17:51:16.453Z,68.49
2018-07-31T17:53:46.014Z,68.84
2018-07-31T17:56:15.216Z,68.69
2018-07-31T17:58:44.498Z,67.40
2018-07-31T18:01:13.375Z,67.77
2018-07-31T18:03:42.306Z,69.20
2018-07-31T18:06:11.341Z,68.74
2018-07-31T18:08:40.201Z,69.84
2018-07-31T18:11:08.966Z,70.53
2018-07-31T18:13:37.746Z,69.92
2018-07-31T18:16:06.760Z,69.84
2018-07-31T18:18:35.706Z,71.14
2018-07-31T18:21:04.527Z,71.27
2018-07-31T18:23:33.478Z,71.21
2018-07-31T18:26:02.446Z,72.29
2018-07-31T18:28:31.292Z,72.95
2018-07-31T18:31:00.151Z,73.00
2018-07-31T18:33:28.981Z,74.11
2018-07-31T18:35:57.814Z,74.61
2018-07-31T18:38:26.619Z,74.17
2018-07-31T18:40:55.451Z,74.18
2018-07-31T18:43:24.418Z,74.21
2018-07-31T18:45:53.222Z,74.29
2018-07-31T18:48:28.446Z,73.44
2018-07-31T18:50:57.251Z,72.56
2018-07-31T18:53:26.490Z,72.73
2018-07-31T18:55:55.398Z,73.08
2018-07-31T18:58:24.543Z,72.04
2018-07-31T19:00:53.916Z,71.80
2018-07-31T19:03:23.006Z,72.39
2018-07-31T19:05:51.841Z,72.41
2018-07-31T19:08:20.644Z,72.32
2018-07-31T19:10:49.441Z,72.43
2018-07-31T19:13:18.331Z,71.86
2018-07-31T19:15:47.377Z,73.08
2018-07-31T19:18:16.264Z,73.02
2018-07-31T19:20:45.083Z,73.28
2018-07-31T19:23:13.950Z,73.99
2018-07-31T19:25:42.896Z,74.56
2018-07-31T19:28:11.892Z,75.17
2018-07-31T19:30:40.850Z,75.39
2018-07-31T19:33:09.753Z,74.81
2018-07-31T19:35:38.980Z,75.76
2018-07-31T19:38:08.012Z,75.16
2018-07-31T19:40:36.924Z,75.14
2018-07-31T19:43:07.636Z,76.16
2018-07-31T19:45:36.481Z,76.31
2018-07-31T19:48:05.377Z,76.31
2018-07-31T19:50:34.399Z,76.92
2018-07-31T19:53:03.201Z,76.34
2018-07-31T19:55:32.023Z,76.08
2018-07-31T19:58:00.815Z,76.50
2018-07-31T20:00:29.717Z,75.72
2018-07-31T20:02:58.522Z,76.27
2018-07-31T20:05:27.365Z,76.37
2018-07-31T20:07:56.226Z,75.63
2018-07-31T20:10:25.019Z,76.26
2018-07-31T20:12:54.085Z,76.24
2018-07-31T20:15:22.991Z,76.06
2018-07-31T20:20:19.738Z,74.95
2018-07-31T20:22:48.522Z,75.12
2018-07-31T20:25:17.341Z,74.93
2018-07-31T20:27:46.134Z,75.62
2018-07-31T20:30:14.917Z,74.37
2018-07-31T20:32:44.139Z,74.92
2018-07-31T20:35:12.923Z,73.80
2018-07-31T20:37:41.721Z,74.63
2018-07-31T20:40:10.580Z,74.18
2018-07-31T20:42:39.408Z,74.97
2018-07-31T20:45:08.747Z,74.78
2018-07-31T20:47:37.898Z,74.51
2018-07-31T20:50:07.107Z,75.81
2018-07-31T20:52:42.307Z,76.16
2018-07-31T20:55:11.158Z,75.84
2018-07-31T20:57:39.973Z,77.05
2018-07-31T21:00:09.311Z,76.70
2018-07-31T21:02:38.150Z,77.74
2018-07-31T21:05:07.459Z,77.79
2018-07-31T21:07:36.348Z,77.92
2018-07-31T21:10:05.326Z,78.35
2018-07-31T21:12:34.114Z,78.67
2018-07-31T21:15:03.001Z,77.64
2018-07-31T21:17:31.786Z,77.78
2018-07-31T21:20:00.635Z,77.71
2018-07-31T21:22:29.559Z,79.19
2018-07-31T21:24:58.327Z,80.40
2018-07-31T21:27:27.098Z,79.56
2018-07-31T21:29:55.847Z,79.54
2018-07-31T21:32:24.673Z,79.65
2018-07-31T21:34:53.495Z,79.90
2018-07-31T21:37:22.288Z,78.77
2018-07-31T21:39:51.059Z,78.59
2018-07-31T21:42:19.927Z,78.27
2018-07-31T21:44:49.031Z,77.47
2018-07-31T21:47:17.806Z,77.82
2018-07-31T21:49:46.700Z,79.41
2018-07-31T21:52:15.559Z,79.98
2018-07-31T21:54:44.464Z,79.91
2018-07-31T21:57:13.278Z,79.89
2018-07-31T21:59:42.101Z,79.65
2018-07-31T22:02:11.078Z,80.19
2018-07-31T22:04:39.927Z,79.22
2018-07-31T22:07:09.130Z,79.01
2018-07-31T22:09:43.647Z,79.48
2018-07-31T22:12:12.646Z,79.46
2018-07-31T22:14:42.419Z,80.07
2018-07-31T22:17:11.226Z,80.38
2018-07-31T22:19:41.010Z,79.67
2018-07-31T22:22:09.842Z,80.04
2018-07-31T22:24:38.710Z,80.45
2018-07-31T22:27:07.607Z,80.15
2018-07-31T22:29:36.362Z,80.57
2018-07-31T22:32:05.219Z,80.34
2018-07-31T22:34:33.982Z,80.76
2018-07-31T22:37:02.776Z,80.96
2018-07-31T22:39:31.566Z,80.70
2018-07-31T22:42:00.349Z,79.63
2018-07-31T22:44:29.112Z,80.41
2018-07-31T22:46:57.963Z,79.62
2018-07-31T22:49:26.760Z,79.67
2018-07-31T22:51:55.554Z,79.05
2018-07-31T22:54:24.318Z,79.10
2018-07-31T22:56:53.095Z,79.51
2018-07-31T22:59:21.874Z,79.06
2018-07-31T23:01:50.734Z,79.40
2018-07-31T23:04:19.491Z,78.69
2018-07-31T23:06:48.330Z,78.45
2018-07-31T23:09:17.152Z,78.54
2018-07-31T23:11:46.293Z,78.99
2018-07-31T23:14:15.106Z,78.55
2018-07-31T23:16:44.099Z,78.31
2018-07-31T23:19:12.887Z,79.06
2018-07-31T23:21:41.663Z,78.79
2018-07-31T23:24:10.463Z,79.91
2018-07-31T23:26:39.237Z,79.80
2018-07-31T23:29:08.063Z,79.40
2018-07-31T23:31:36.920Z,78.81
2018-07-31T23:34:05.753Z,78.81
2018-07-31T23:36:34.552Z,79.32
2018-07-31T23:39:04.778Z,79.92
2018-07-31T23:41:33.557Z,79.77
2018-07-31T23:44:02.347Z,79.57
2018-07-31T23:46:31.162Z,78.82
2018-07-31T23:48:59.944Z,79.44
2018-07-31T23:51:28.729Z,79.50
2018-07-31T23:53:57.531Z,79.83
2018-07-31T23:56:26.380Z,80.66
2018-07-31T23:58:55.146Z,79.91
